Swanville, Minnesota
Current Conditions -  °F | °C
As of 1:45 AM on Saturday 29 Nov 2014 (Local Time) from K14Y Reporting Station
Overcast Overcast  
Wind Chill: 10°   Ceiling: 900
Heat Index: 19°   Visibility: 10mi
Dew Point: 18°   Wind: 7mph
Humidity: 93%   Direction: 120°ESE
Pressure: 29.55"   Gusts: NA
Location:  45.91°N, 94.64°W
Report Text: K14Y 290745Z AUTO 12006KT 10SM OVC009 M07/M08 A2955 RMK AO2
Loading
Personal Weather Stations






























Interactive Weather Map New forecast layout! Learn more

10-Day Weather Forecast

Advertisements
Track Severe Weather on mobile